createdAt,value
2018-02-03T00:00:04.676Z,0
2018-02-03T00:05:02.666Z,0
2018-02-03T00:10:03.262Z,0
2018-02-03T00:15:02.770Z,0
2018-02-03T00:20:03.493Z,0
2018-02-03T00:25:03.033Z,0
2018-02-03T00:30:02.667Z,0
2018-02-03T00:35:03.252Z,0
2018-02-03T00:40:02.936Z,0
2018-02-03T00:45:03.517Z,0
2018-02-03T00:50:03.098Z,0
2018-02-03T00:55:02.587Z,0
2018-02-03T01:00:03.114Z,0
2018-02-03T01:05:03.535Z,0
2018-02-03T01:10:03.075Z,0
2018-02-03T01:15:03.540Z,0
2018-02-03T01:20:03.232Z,0
2018-02-03T01:25:02.669Z,0
2018-02-03T01:30:03.089Z,0
2018-02-03T01:35:02.923Z,0
2018-02-03T01:40:03.522Z,0
2018-02-03T01:45:02.989Z,0
2018-02-03T01:50:03.636Z,1
2018-02-03T01:55:03.152Z,0
2018-02-03T02:00:02.699Z,0
2018-02-03T02:05:03.180Z,0
2018-02-03T02:10:02.701Z,0
2018-02-03T02:15:03.154Z,0
2018-02-03T02:20:02.694Z,0
2018-02-03T02:25:03.229Z,0
2018-02-03T02:30:02.661Z,0
2018-02-03T02:35:03.265Z,0
2018-02-03T02:40:02.944Z,0
2018-02-03T02:45:03.393Z,0
2018-02-03T02:50:02.976Z,0
2018-02-03T02:55:03.476Z,0
2018-02-03T03:00:02.955Z,0
2018-02-03T03:05:03.378Z,0
2018-02-03T03:10:02.931Z,0
2018-02-03T03:15:03.471Z,0
2018-02-03T03:20:02.928Z,1
2018-02-03T03:25:03.380Z,0
2018-02-03T03:30:02.925Z,0
2018-02-03T03:35:03.602Z,0
2018-02-03T03:40:03.210Z,0
2018-02-03T03:45:02.735Z,0
2018-02-03T03:50:03.221Z,0
2018-02-03T03:55:02.651Z,0
2018-02-03T04:00:03.266Z,0
2018-02-03T04:05:02.806Z,0
2018-02-03T04:10:03.370Z,1
2018-02-03T04:15:03.044Z,2
2018-02-03T04:20:02.695Z,0
2018-02-03T04:25:03.354Z,0
2018-02-03T04:30:02.895Z,0
2018-02-03T04:35:03.387Z,0
2018-02-03T04:40:02.835Z,0
2018-02-03T04:45:03.504Z,0
2018-02-03T04:50:02.981Z,0
2018-02-03T04:55:03.589Z,0
2018-02-03T05:00:03.287Z,0
2018-02-03T05:05:02.884Z,0
2018-02-03T05:10:03.561Z,0
2018-02-03T05:15:02.951Z,0
2018-02-03T05:20:03.340Z,0
2018-02-03T05:25:02.834Z,0
2018-02-03T05:30:03.285Z,0
2018-02-03T05:35:02.667Z,0
2018-02-03T05:40:03.272Z,0
2018-02-03T05:45:02.781Z,0
2018-02-03T05:50:03.499Z,0
2018-02-03T05:55:02.949Z,0
2018-02-03T06:00:03.594Z,0
2018-02-03T06:05:03.167Z,0
2018-02-03T06:10:02.825Z,0
2018-02-03T06:15:03.260Z,0
2018-02-03T06:20:02.798Z,0
2018-02-03T06:25:03.208Z,0
2018-02-03T06:30:02.637Z,0
2018-02-03T06:35:03.111Z,0
2018-02-03T06:40:02.755Z,0
2018-02-03T06:45:03.285Z,2
2018-02-03T06:50:02.732Z,1
2018-02-03T06:55:03.215Z,1
2018-02-03T07:00:02.700Z,0
2018-02-03T07:05:03.222Z,0
2018-02-03T07:10:02.696Z,0
2018-02-03T07:15:03.273Z,0
2018-02-03T07:20:02.977Z,1
2018-02-03T07:25:03.601Z,0
2018-02-03T07:30:02.946Z,1
2018-02-03T07:35:03.523Z,0
2018-02-03T07:40:03.139Z,1
2018-02-03T07:45:02.668Z,3
2018-02-03T07:50:03.147Z,3
2018-02-03T07:55:02.683Z,2
2018-02-03T08:00:03.264Z,2
2018-02-03T08:05:02.871Z,0
2018-02-03T08:10:03.516Z,0
2018-02-03T08:15:03.036Z,1
2018-02-03T08:20:03.597Z,0
2018-02-03T08:25:03.057Z,1
2018-02-03T08:30:02.748Z,0
2018-02-03T08:35:03.209Z,0
2018-02-03T08:40:02.745Z,0
2018-02-03T08:45:03.258Z,0
2018-02-03T08:50:02.737Z,0
2018-02-03T08:55:03.377Z,1
2018-02-03T09:00:02.892Z,0
2018-02-03T09:05:03.334Z,1
2018-02-03T09:10:02.930Z,0
2018-02-03T09:15:03.426Z,0
2018-02-03T09:20:03.008Z,2
2018-02-03T09:25:03.508Z,1
2018-02-03T09:30:03.072Z,2
2018-02-03T09:35:02.691Z,1
2018-02-03T09:40:03.362Z,3
2018-02-03T09:45:02.922Z,1
2018-02-03T09:50:03.595Z,3
2018-02-03T09:55:03.104Z,3
2018-02-03T10:00:03.595Z,2
2018-02-03T10:05:03.229Z,1
2018-02-03T10:10:02.729Z,2
2018-02-03T10:15:03.622Z,0
2018-02-03T10:20:03.286Z,2
2018-02-03T10:25:02.804Z,4
2018-02-03T10:30:03.382Z,4
2018-02-03T10:35:02.821Z,4
2018-02-03T10:40:03.554Z,3
2018-02-03T10:45:02.940Z,2
2018-02-03T10:50:03.442Z,3
2018-02-03T10:55:02.991Z,3
2018-02-03T11:00:03.572Z,1
2018-02-03T11:05:03.182Z,3
2018-02-03T11:10:02.875Z,2
2018-02-03T11:15:03.570Z,3
2018-02-03T11:20:03.332Z,4
2018-02-03T11:25:02.966Z,3
2018-02-03T11:30:03.534Z,5
2018-02-03T11:35:02.960Z,2
2018-02-03T11:40:03.607Z,0
2018-02-03T11:45:03.214Z,4
2018-02-03T11:50:02.828Z,2
2018-02-03T11:55:03.444Z,2
2018-02-03T12:00:03.057Z,3
2018-02-03T12:05:02.633Z,2
2018-02-03T12:10:03.317Z,3
2018-02-03T12:15:02.723Z,3
2018-02-03T12:20:03.191Z,2
2018-02-03T12:25:02.674Z,2
2018-02-03T12:30:03.178Z,5
2018-02-03T12:35:02.753Z,0
2018-02-03T12:40:03.311Z,3
2018-02-03T12:45:02.828Z,2
2018-02-03T12:50:03.451Z,3
2018-02-03T12:55:03.101Z,2
2018-02-03T13:00:03.567Z,0
2018-02-03T13:05:03.180Z,0
2018-02-03T13:10:02.686Z,1
2018-02-03T13:15:03.277Z,1
2018-02-03T13:20:02.984Z,1
2018-02-03T13:25:03.490Z,2
2018-02-03T13:30:03.113Z,3
2018-02-03T13:35:02.694Z,3
2018-02-03T13:40:03.331Z,7
2018-02-03T13:45:02.791Z,2
2018-02-03T13:50:03.414Z,4
2018-02-03T13:55:02.934Z,3
2018-02-03T14:00:03.353Z,2
2018-02-03T14:05:03.034Z,3
2018-02-03T14:10:02.711Z,4
2018-02-03T14:15:03.262Z,5
2018-02-03T14:20:02.729Z,6
2018-02-03T14:25:03.537Z,1
2018-02-03T14:30:03.064Z,5
2018-02-03T14:35:02.694Z,5
2018-02-03T14:40:03.191Z,2
2018-02-03T14:45:02.680Z,3
2018-02-03T14:50:03.172Z,3
2018-02-03T14:55:02.682Z,3
2018-02-03T15:00:03.143Z,5
2018-02-03T15:05:02.792Z,5
2018-02-03T15:10:03.364Z,3
2018-02-03T15:15:03.003Z,5
2018-02-03T15:20:03.634Z,2
2018-02-03T15:25:03.135Z,1
2018-02-03T15:30:03.590Z,0
2018-02-03T15:35:03.243Z,2
2018-02-03T15:40:02.820Z,1
2018-02-03T15:45:03.388Z,0
2018-02-03T15:50:02.875Z,2
2018-02-03T15:55:03.575Z,2
2018-02-03T16:00:03.252Z,0
2018-02-03T16:05:02.975Z,0
2018-02-03T16:10:02.650Z,2
2018-02-03T16:15:03.143Z,0
2018-02-03T16:20:02.829Z,1
2018-02-03T16:25:03.548Z,0
2018-02-03T16:30:03.207Z,0
2018-02-03T16:35:02.736Z,0
2018-02-03T16:40:03.278Z,0
2018-02-03T16:45:02.903Z,0
2018-02-03T16:50:02.613Z,0
2018-02-03T16:55:03.081Z,0
2018-02-03T17:00:03.606Z,0
2018-02-03T17:05:03.125Z,2
2018-02-03T17:10:02.712Z,1
2018-02-03T17:15:03.231Z,1
2018-02-03T17:20:02.881Z,0
2018-02-03T17:25:03.509Z,0
2018-02-03T17:30:03.153Z,0
2018-02-03T17:35:02.759Z,0
2018-02-03T17:40:03.351Z,0
2018-02-03T17:45:02.801Z,0
2018-02-03T17:50:03.381Z,2
2018-02-03T17:55:02.850Z,0
2018-02-03T18:00:03.543Z,0
2018-02-03T18:05:02.820Z,1
2018-02-03T18:10:03.414Z,0
2018-02-03T18:15:02.968Z,0
2018-02-03T18:20:02.685Z,0
2018-02-03T18:25:03.169Z,0
2018-02-03T18:30:02.915Z,0
2018-02-03T18:35:03.540Z,0
2018-02-03T18:40:03.041Z,0
2018-02-03T18:45:02.649Z,0
2018-02-03T18:50:03.137Z,0
2018-02-03T18:55:03.631Z,0
2018-02-03T19:00:03.273Z,0
2018-02-03T19:05:02.727Z,0
2018-02-03T19:10:03.429Z,0
2018-02-03T19:15:03.085Z,0
2018-02-03T19:20:02.863Z,0
2018-02-03T19:25:03.431Z,0
2018-02-03T19:30:02.960Z,3
2018-02-03T19:35:03.501Z,0
2018-02-03T19:40:03.086Z,0
2018-02-03T19:45:02.711Z,0
2018-02-03T19:50:03.299Z,2
2018-02-03T19:55:02.710Z,0
2018-02-03T20:00:03.324Z,0
2018-02-03T20:05:02.907Z,2
2018-02-03T20:10:03.609Z,3
2018-02-03T20:15:03.041Z,2
2018-02-03T20:20:02.629Z,5
2018-02-03T20:25:03.099Z,3
2018-02-03T20:30:02.780Z,4
2018-02-03T20:35:03.283Z,2
2018-02-03T20:40:02.912Z,4
2018-02-03T20:45:03.542Z,4
2018-02-03T20:50:03.043Z,3
2018-02-03T20:55:03.590Z,4
2018-02-03T21:00:03.098Z,2
2018-02-03T21:05:02.716Z,2
2018-02-03T21:10:03.497Z,3
2018-02-03T21:15:03.152Z,2
2018-02-03T21:20:02.692Z,0
2018-02-03T21:25:03.369Z,2
2018-02-03T21:30:03.039Z,2
2018-02-03T21:35:02.767Z,2
2018-02-03T21:40:03.285Z,2
2018-02-03T21:45:02.913Z,0
2018-02-03T21:50:03.571Z,5
2018-02-03T21:55:03.180Z,0
2018-02-03T22:00:03.686Z,2
2018-02-03T22:05:03.348Z,2
2018-02-03T22:10:03.056Z,1
2018-02-03T22:15:02.658Z,0
2018-02-03T22:20:03.307Z,1
2018-02-03T22:25:02.698Z,0
2018-02-03T22:30:03.501Z,0
2018-02-03T22:35:03.061Z,0
2018-02-03T22:40:02.633Z,0
2018-02-03T22:45:03.209Z,2
2018-02-03T22:50:02.626Z,0
2018-02-03T22:55:03.212Z,0
2018-02-03T23:00:02.752Z,3
2018-02-03T23:05:03.395Z,2
2018-02-03T23:10:03.045Z,2
2018-02-03T23:15:03.496Z,2
2018-02-03T23:20:03.094Z,4
2018-02-03T23:25:02.660Z,4
2018-02-03T23:30:03.313Z,2
2018-02-03T23:35:02.928Z,0
2018-02-03T23:40:03.404Z,2
2018-02-03T23:45:02.906Z,5
2018-02-03T23:50:03.338Z,2
2018-02-03T23:55:02.948Z,2
